Time;durP1;ratioP1;P1;durP2;ratioP2;P2;SDS_P1;SDS_P2;PMS_P1;PMS_P2;Temp;Humidity;BMP_temperature;BMP_pressure;BME280_temperature;BME280_humidity;BME280_pressure;Samples;Min_cycle;Max_cycle;Signal;HPM_P1;HPM_P2
2023/08/04 00:01:42;;;;;;;2.20;2.10;;;;;;;22.27;100.00;99832.23;83979;286;138119;-61
2023/08/04 00:03:44;;;;;;;3.00;1.50;;;;;;;22.25;99.88;99836.95;83918;286;25251;-60
2023/08/04 00:05:46;;;;;;;2.50;2.20;;;;;;;22.26;99.97;99839.34;83885;285;136575;-62
2023/08/04 00:07:48;;;;;;;2.20;1.90;;;;;;;22.25;100.00;99838.52;83785;286;22794;-60
2023/08/04 00:09:50;;;;;;;1.80;1.70;;;;;;;22.25;100.00;99840.20;83804;286;138161;-61
2023/08/04 00:11:51;;;;;;;1.60;1.50;;;;;;;22.27;99.91;99837.65;84051;285;25184;-62
2023/08/04 00:13:53;;;;;;;4.30;1.90;;;;;;;22.29;99.89;99842.21;83730;286;138081;-58
2023/08/04 00:16:02;;;;;;;2.00;1.80;;;;;;;22.28;99.73;99839.34;83739;286;22650;-60
2023/08/04 00:18:04;;;;;;;2.80;2.00;;;;;;;22.26;100.00;99838.25;84077;287;22556;-58
2023/08/04 00:20:10;;;;;;;2.10;2.00;;;;;;;22.22;100.00;99840.53;83820;288;138978;-68
2023/08/04 00:22:12;;;;;;;1.70;1.60;;;;;;;22.27;99.94;99840.96;83897;286;22560;-61
2023/08/04 00:24:14;;;;;;;3.60;1.60;;;;;;;22.27;99.82;99841.25;83640;286;138697;-63
2023/08/04 00:26:16;;;;;;;1.60;1.50;;;;;;;22.22;99.88;99844.65;84323;286;22549;-63
2023/08/04 00:28:19;;;;;;;3.00;1.90;;;;;;;22.26;99.50;99843.09;84013;286;137022;-62
2023/08/04 00:30:21;;;;;;;4.00;2.20;;;;;;;22.25;99.91;99844.60;84144;286;22548;-61
2023/08/04 00:32:23;;;;;;;1.70;1.60;;;;;;;22.23;99.78;99845.14;83801;287;138056;-59
2023/08/04 00:34:27;;;;;;;2.70;1.70;;;;;;;22.22;99.87;99844.52;84103;285;25223;-59
2023/08/04 00:36:28;;;;;;;1.80;1.70;;;;;;;22.15;99.83;99841.32;84130;282;136966;-61
2023/08/04 00:38:30;;;;;;;2.00;1.80;;;;;;;22.11;99.94;99847.95;84245;282;25174;-64
2023/08/04 00:40:32;;;;;;;1.90;1.80;;;;;;;22.12;99.98;99846.88;84080;283;136600;-61
2023/08/04 00:42:36;;;;;;;3.30;1.40;;;;;;;22.16;99.93;99849.95;84586;282;24111;-62
2023/08/04 00:44:38;;;;;;;1.40;1.40;;;;;;;22.13;99.97;99847.67;84067;283;137666;-60
2023/08/04 00:46:41;;;;;;;2.10;2.00;;;;;;;22.10;99.99;99844.11;84157;283;22636;-59
2023/08/04 00:48:43;;;;;;;2.00;1.90;;;;;;;22.05;100.00;99843.14;84058;282;136769;-62
2023/08/04 00:50:45;;;;;;;1.90;1.80;;;;;;;22.01;100.00;99843.48;84187;282;22548;-60
2023/08/04 00:52:48;;;;;;;1.90;1.80;;;;;;;22.03;100.00;99839.84;83962;282;137354;-63
2023/08/04 00:54:50;;;;;;;1.90;1.80;;;;;;;22.01;100.00;99844.35;83962;282;22580;-62
2023/08/04 00:56:55;;;;;;;2.00;1.90;;;;;;;21.99;100.00;99843.80;84062;283;136638;-62
2023/08/04 00:58:59;;;;;;;2.10;2.00;;;;;;;22.00;100.00;99841.80;84389;283;24129;-60
2023/08/04 01:01:01;;;;;;;;;;;;;;;22.05;100.00;99839.02;83974;282;136837;-63
2023/08/04 01:03:03;;;;;;;2.10;1.80;;;;;;;21.97;100.00;99824.06;84150;283;22744;-60
2023/08/04 01:05:06;;;;;;;1.80;1.70;;;;;;;22.04;99.92;99835.07;84114;282;136899;-60
2023/08/04 01:07:25;;;;;;;2.10;1.80;;;;;;;22.05;99.67;99833.85;84340;282;22557;-61
2023/08/04 01:09:51;;;;;;;1.50;1.40;;;;;;;22.07;99.57;99834.12;84222;282;139477;-62
2023/08/04 01:12:12;;;;;;;3.40;2.30;;;;;;;22.01;99.22;99840.27;84490;282;25819;-62
2023/08/04 01:14:14;;;;;;;3.20;1.60;;;;;;;21.95;99.68;99842.74;84218;283;22553;-60
2023/08/04 01:16:18;;;;;;;2.10;2.00;;;;;;;21.91;99.79;99844.00;84072;282;136930;-59
2023/08/04 01:18:21;;;;;;;1.80;1.70;;;;;;;21.93;99.97;99842.09;84207;282;22574;-64
2023/08/04 01:20:24;;;;;;;2.80;1.90;;;;;;;21.91;100.00;99843.73;84128;282;136958;-60
2023/08/04 01:22:28;;;;;;;1.70;1.50;;;;;;;21.91;99.89;99843.02;84237;283;25257;-64
2023/08/04 01:24:29;;;;;;;1.90;1.80;;;;;;;21.91;99.69;99842.31;84133;282;136908;-62
2023/08/04 01:26:35;;;;;;;2.40;2.30;;;;;;;21.90;99.80;99844.65;84209;279;22577;-61
2023/08/04 01:28:37;;;;;;;3.00;2.30;;;;;;;21.88;100.00;99845.59;84140;283;137166;-63
2023/08/04 01:30:44;;;;;;;1.90;1.80;;;;;;;21.89;100.00;99846.45;84171;283;22578;-60
2023/08/04 01:32:47;;;;;;;1.80;1.70;;;;;;;21.85;100.00;99844.29;84174;270;136910;-61
2023/08/04 01:34:50;;;;;;;2.00;1.80;;;;;;;21.84;100.00;99848.15;84323;282;25849;-64
2023/08/04 01:36:52;;;;;;;3.50;1.70;;;;;;;21.86;100.00;99850.30;84229;282;137022;-62
2023/08/04 01:38:56;;;;;;;2.30;1.90;;;;;;;21.81;100.00;99847.49;84230;282;24366;-60
2023/08/04 01:40:59;;;;;;;4.90;1.90;;;;;;;21.76;100.00;99844.85;84229;282;137400;-61
2023/08/04 01:43:04;;;;;;;2.20;2.00;;;;;;;21.71;100.00;99844.42;84302;282;22675;-59
2023/08/04 01:45:06;;;;;;;2.70;1.50;;;;;;;21.71;100.00;99845.15;84235;282;137172;-58
2023/08/04 01:47:08;;;;;;;1.70;1.60;;;;;;;21.74;100.00;99845.61;84260;283;23658;-62
2023/08/04 01:49:10;;;;;;;1.70;1.60;;;;;;;21.73;100.00;99850.02;84196;282;137107;-63
2023/08/04 01:51:12;;;;;;;2.30;2.10;;;;;;;21.72;100.00;99846.54;84250;282;23721;-59
2023/08/04 01:53:14;;;;;;;2.50;1.90;;;;;;;21.72;100.00;99849.52;84149;284;136841;-63
2023/08/04 01:55:15;;;;;;;1.60;1.50;;;;;;;21.69;100.00;99851.64;84271;282;24219;-63
2023/08/04 01:57:17;;;;;;;4.50;2.00;;;;;;;21.68;100.00;99852.95;84185;282;136912;-61
2023/08/04 01:59:19;;;;;;;1.70;1.60;;;;;;;21.66;100.00;99851.60;84177;282;25316;-60
2023/08/04 02:01:22;;;;;;;3.70;1.70;;;;;;;21.67;100.00;99850.39;83960;283;137271;-60
2023/08/04 02:03:24;;;;;;;1.40;1.40;;;;;;;21.67;100.00;99848.61;84293;279;22811;-63
2023/08/04 02:05:29;;;;;;;3.10;1.30;;;;;;;21.66;100.00;99848.08;84067;265;137118;-60
2023/08/04 02:07:30;;;;;;;1.40;1.40;;;;;;;21.65;100.00;99848.56;84222;282;22545;-61
2023/08/04 02:09:33;;;;;;;2.10;1.50;;;;;;;21.67;100.00;99847.46;84211;282;136929;-61
2023/08/04 02:11:35;;;;;;;1.50;1.50;;;;;;;21.69;100.00;99848.82;84352;282;22552;-60
2023/08/04 02:13:36;;;;;;;1.70;1.60;;;;;;;21.66;100.00;99848.34;84123;283;136837;-60
2023/08/04 02:15:38;;;;;;;2.20;1.60;;;;;;;21.62;100.00;99848.28;84295;282;24280;-61
2023/08/04 02:17:40;;;;;;;4.30;1.90;;;;;;;21.61;100.00;99848.95;84061;282;137113;-60
2023/08/04 02:19:42;;;;;;;1.50;1.20;;;;;;;21.61;100.00;99849.06;84187;282;22545;-61
2023/08/04 02:21:44;;;;;;;1.60;1.50;;;;;;;21.61;100.00;99851.66;84052;271;138496;-62
2023/08/04 02:23:46;;;;;;;1.80;1.70;;;;;;;21.62;100.00;99847.48;84171;281;24528;-60
2023/08/04 02:25:48;;;;;;;1.50;1.40;;;;;;;21.61;100.00;99845.36;84205;281;137077;-67
2023/08/04 02:27:50;;;;;;;2.30;2.20;;;;;;;21.60;100.00;99845.96;84209;282;22675;-58
2023/08/04 02:29:52;;;;;;;2.40;1.60;;;;;;;21.61;100.00;99848.41;84131;282;136938;-67
2023/08/04 02:31:54;;;;;;;1.50;1.40;;;;;;;21.61;100.00;99849.38;84192;282;22554;-63
2023/08/04 02:33:59;;;;;;;1.80;1.60;;;;;;;21.59;100.00;99845.52;84322;285;136641;-61
2023/08/04 02:36:02;;;;;;;1.40;1.30;;;;;;;21.58;99.93;99852.30;84275;282;23820;-61
2023/08/04 02:38:06;;;;;;;;;;;;;;;21.63;99.65;99854.09;84238;282;22705;-63
2023/08/04 02:40:11;;;;;;;2.10;2.00;;;;;;;21.65;99.52;99858.38;84080;282;123807;-63
2023/08/04 02:42:13;;;;;;;2.00;1.80;;;;;;;21.60;99.78;99858.33;84170;283;22730;-62
2023/08/04 02:44:15;;;;;;;3.40;1.70;;;;;;;21.57;99.71;99859.95;84169;282;136995;-61
2023/08/04 02:46:17;;;;;;;1.40;1.40;;;;;;;21.60;99.42;99867.06;84125;282;22601;-60
2023/08/04 02:48:19;;;;;;;4.10;1.20;;;;;;;21.60;99.67;99866.63;84132;282;137902;-62
2023/08/04 02:50:21;;;;;;;1.20;1.20;;;;;;;21.63;99.46;99865.31;84208;283;25270;-60
2023/08/04 02:52:23;;;;;;;1.30;1.30;;;;;;;21.68;98.63;99866.34;84014;283;138082;-60
2023/08/04 02:54:25;;;;;;;2.70;1.60;;;;;;;21.70;98.62;99866.88;84110;282;22547;-57
2023/08/04 02:56:27;;;;;;;1.30;1.30;;;;;;;21.77;98.08;99875.23;84193;283;136940;-64
2023/08/04 02:58:31;;;;;;;2.20;1.80;;;;;;;21.81;97.97;99873.38;84224;282;22553;-61
2023/08/04 03:00:33;;;;;;;3.00;1.50;;;;;;;21.85;97.73;99876.52;84211;282;136866;-60
2023/08/04 03:02:35;;;;;;;1.60;1.50;;;;;;;21.93;97.06;99878.61;84266;282;22553;-64
2023/08/04 03:04:38;;;;;;;1.70;1.30;;;;;;;22.07;96.97;99877.66;84068;283;136982;-60
2023/08/04 03:06:41;;;;;;;2.20;1.10;;;;;;;22.29;95.22;99877.21;84253;282;22557;-58
2023/08/04 03:08:42;;;;;;;1.20;1.10;;;;;;;22.53;93.92;99877.84;84053;282;136831;-63
2023/08/04 03:10:44;;;;;;;2.10;1.10;;;;;;;22.77;92.13;99881.89;84181;283;23706;-60
2023/08/04 03:12:46;;;;;;;1.30;1.20;;;;;;;22.98;90.47;99881.61;84068;283;136677;-61
2023/08/04 03:14:48;;;;;;;1.30;1.10;;;;;;;23.18;89.39;99883.06;84206;283;24156;-65
2023/08/04 03:16:50;;;;;;;0.90;0.90;;;;;;;23.38;88.25;99884.33;84050;283;135655;-63
2023/08/04 03:18:52;;;;;;;1.10;1.10;;;;;;;23.62;87.01;99884.89;84314;283;24226;-62
2023/08/04 03:20:54;;;;;;;4.30;2.60;;;;;;;23.88;84.98;99885.86;84129;283;136256;-62
2023/08/04 03:22:57;;;;;;;1.30;0.90;;;;;;;24.05;83.28;99886.98;84312;283;25135;-68
2023/08/04 03:24:59;;;;;;;1.10;1.10;;;;;;;24.22;82.07;99885.04;84036;283;136315;-63
2023/08/04 03:27:02;;;;;;;1.30;1.10;;;;;;;24.33;81.60;99879.70;84077;284;22645;-63
2023/08/04 03:29:04;;;;;;;0.90;0.90;;;;;;;24.43;81.34;99877.21;84277;282;137131;-63
2023/08/04 03:31:05;;;;;;;1.60;1.50;;;;;;;24.54;80.30;99877.27;84220;282;22551;-62
2023/08/04 03:33:09;;;;;;;2.20;1.50;;;;;;;24.63;79.67;99877.52;84153;282;136311;-62
2023/08/04 03:35:11;;;;;;;2.00;1.30;;;;;;;24.70;79.05;99879.40;84363;283;22562;-60
2023/08/04 03:37:13;;;;;;;1.50;1.10;;;;;;;24.81;78.66;99881.59;84158;282;136237;-59
2023/08/04 03:39:15;;;;;;;3.20;1.50;;;;;;;24.67;78.69;99871.77;84076;283;24103;-61
2023/08/04 03:41:17;;;;;;;3.50;1.50;;;;;;;24.44;79.59;99878.69;84189;282;136062;-63
2023/08/04 03:43:19;;;;;;;1.20;1.10;;;;;;;24.21;80.67;99883.16;84132;282;25257;-63
2023/08/04 03:45:21;;;;;;;4.50;1.70;;;;;;;23.91;81.84;99878.58;84112;282;136252;-63
2023/08/04 03:47:22;;;;;;;2.30;1.50;;;;;;;23.73;83.33;99892.23;84206;282;24068;-60
2023/08/04 03:49:24;;;;;;;7.00;1.50;;;;;;;23.59;84.16;99888.00;84089;270;136104;-70
2023/08/04 03:51:26;;;;;;;1.20;1.10;;;;;;;23.49;84.92;99895.06;84247;281;22721;-64
2023/08/04 03:53:28;;;;;;;1.70;1.50;;;;;;;23.49;85.45;99888.30;84129;282;136253;-62
2023/08/04 03:55:29;;;;;;;9.50;1.90;;;;;;;23.54;85.56;99891.16;84269;281;24131;-63
2023/08/04 03:57:31;;;;;;;2.20;1.70;;;;;;;23.56;84.86;99889.67;84138;282;138373;-59
2023/08/04 03:59:33;;;;;;;3.40;1.40;;;;;;;23.65;84.69;99891.27;84264;282;25269;-62
2023/08/04 04:01:35;;;;;;;1.50;1.50;;;;;;;23.92;84.05;99892.23;83936;282;137968;-61
2023/08/04 04:03:37;;;;;;;1.40;1.30;;;;;;;24.36;82.29;99892.35;84059;283;22539;-60
2023/08/04 04:05:39;;;;;;;1.40;1.30;;;;;;;24.80;80.50;99882.20;84060;283;137671;-67
2023/08/04 04:07:41;;;;;;;1.80;1.60;;;;;;;25.31;77.13;99899.46;84233;282;22561;-64
2023/08/04 04:09:42;;;;;;;1.40;1.30;;;;;;;25.54;76.25;99896.92;84173;282;137658;-63
2023/08/04 04:11:44;;;;;;;2.70;1.30;;;;;;;25.76;74.73;99897.94;84310;282;22564;-58
2023/08/04 04:13:48;;;;;;;1.60;1.50;;;;;;;26.00;73.80;99899.48;84141;282;135094;-66
2023/08/04 04:15:50;;;;;;;1.20;1.20;;;;;;;26.24;72.57;99908.50;84207;270;23726;-60
2023/08/04 04:17:52;;;;;;;1.80;1.50;;;;;;;26.56;71.59;99916.48;84144;282;136328;-61
2023/08/04 04:19:54;;;;;;;2.40;1.80;;;;;;;26.97;70.50;99906.47;84228;282;25269;-59
2023/08/04 04:21:56;;;;;;;2.30;1.50;;;;;;;27.46;68.36;99905.29;84026;282;136719;-61
2023/08/04 04:23:58;;;;;;;1.40;1.30;;;;;;;27.92;65.78;99901.87;84181;282;22557;-72
2023/08/04 04:26:00;;;;;;;2.60;1.10;;;;;;;28.22;63.61;99899.86;84049;282;135814;-62
2023/08/04 04:28:04;;;;;;;;;;;;;;;28.22;63.32;99895.26;84268;282;137535;-68
2023/08/04 04:30:06;;;;;;;1.10;1.00;;;;;;;28.07;63.57;99894.03;84201;282;22548;-62
2023/08/04 04:32:08;;;;;;;5.40;1.70;;;;;;;28.05;64.08;99894.23;84154;282;136697;-67
2023/08/04 04:34:10;;;;;;;3.50;1.70;;;;;;;28.16;63.58;99891.15;84166;282;24131;-70
2023/08/04 04:36:12;;;;;;;2.20;1.60;;;;;;;28.20;63.54;99890.98;84292;282;136270;-59
2023/08/04 04:38:14;;;;;;;1.40;1.30;;;;;;;28.18;63.30;99891.14;84085;282;25218;-62
2023/08/04 04:40:16;;;;;;;5.20;1.30;;;;;;;28.25;62.97;99888.65;84069;282;136448;-61
2023/08/04 04:42:18;;;;;;;2.00;0.90;;;;;;;28.31;62.62;99887.05;84277;283;23705;-61
2023/08/04 04:44:20;;;;;;;2.40;1.50;;;;;;;28.35;62.44;99885.30;84005;283;136273;-60
2023/08/04 04:46:22;;;;;;;1.70;1.60;;;;;;;28.35;62.37;99889.78;84168;282;22578;-61
2023/08/04 04:48:24;;;;;;;2.10;1.60;;;;;;;28.37;62.01;99895.90;84228;282;137357;-61
2023/08/04 04:50:26;;;;;;;1.80;1.60;;;;;;;28.44;62.64;99893.70;84211;282;24246;-69
2023/08/04 04:52:33;;;;;;;2.30;1.20;;;;;;;28.72;62.46;99891.91;84262;282;136228;-63
2023/08/04 04:54:35;;;;;;;1.20;1.10;;;;;;;29.03;61.25;99893.48;84340;282;22560;-62
2023/08/04 04:56:38;;;;;;;1.90;1.50;;;;;;;29.22;59.80;99893.57;84195;282;136078;-61
2023/08/04 04:58:40;;;;;;;1.60;1.30;;;;;;;29.26;59.49;99896.88;83908;282;361558;-63
2023/08/04 05:00:42;;;;;;;2.50;1.70;;;;;;;29.31;59.86;99898.20;84104;282;137628;-63
2023/08/04 05:02:44;;;;;;;3.60;1.80;;;;;;;29.48;59.50;99898.66;84209;283;25252;-66
2023/08/04 05:04:47;;;;;;;4.20;1.70;;;;;;;29.62;58.58;99897.66;84049;272;136248;-62
2023/08/04 05:06:48;;;;;;;2.60;2.00;;;;;;;29.62;58.12;99897.91;84174;282;25191;-65
2023/08/04 05:08:50;;;;;;;2.20;2.10;;;;;;;29.55;58.77;99899.48;84118;282;136375;-60
2023/08/04 05:10:53;;;;;;;6.00;2.80;;;;;;;29.55;59.25;99899.25;84215;283;24132;-62
2023/08/04 05:12:55;;;;;;;2.30;2.10;;;;;;;29.75;58.96;99901.94;84214;282;136246;-62
2023/08/04 05:14:57;;;;;;;2.70;1.40;;;;;;;29.92;58.22;99904.98;84223;282;22735;-63
2023/08/04 05:16:59;;;;;;;3.90;2.30;;;;;;;29.99;57.17;99905.52;84121;282;136308;-65
2023/08/04 05:19:00;;;;;;;4.60;1.90;;;;;;;29.90;57.64;99907.20;84190;282;25273;-67
2023/08/04 05:21:03;;;;;;;2.30;1.70;;;;;;;29.82;57.85;99909.29;84086;282;135228;-63
2023/08/04 05:23:05;;;;;;;2.30;2.20;;;;;;;29.86;58.40;99909.70;84257;283;28302;-65
2023/08/04 05:25:09;;;;;;;3.00;1.90;;;;;;;30.03;58.09;99908.51;84069;282;137026;-70
2023/08/04 05:27:12;;;;;;;5.20;1.80;;;;;;;30.22;57.91;99912.25;84252;282;22572;-65
2023/08/04 05:29:14;;;;;;;4.40;4.00;;;;;;;30.28;56.97;99914.15;84127;282;137239;-64
2023/08/04 05:31:16;;;;;;;10.10;9.20;;;;;;;30.28;57.47;99918.39;84209;283;23743;-66
2023/08/04 05:33:18;;;;;;;13.40;12.40;;;;;;;30.42;57.38;99919.29;84237;251;136317;-62
2023/08/04 05:35:20;;;;;;;12.80;11.70;;;;;;;30.48;57.04;99909.21;84175;282;25269;-63
2023/08/04 05:37:21;;;;;;;10.30;9.60;;;;;;;30.63;57.21;99915.45;84106;283;136609;-62
2023/08/04 05:39:23;;;;;;;4.70;3.10;;;;;;;30.74;56.65;99919.02;84233;283;22677;-62
2023/08/04 05:41:25;;;;;;;5.30;2.60;;;;;;;30.79;55.56;99921.64;84106;282;136446;-65
2023/08/04 05:43:27;;;;;;;7.00;5.80;;;;;;;30.66;55.82;99923.38;84236;283;24813;-64
2023/08/04 05:45:33;;;;;;;4.20;2.80;;;;;;;30.49;56.65;99919.46;84084;282;136087;-63
2023/08/04 05:47:37;;;;;;;4.90;4.10;;;;;;;30.39;57.15;99918.88;84279;282;26230;-64
2023/08/04 05:49:39;;;;;;;4.30;2.90;;;;;;;30.43;57.16;99916.17;84152;282;136386;-69
2023/08/04 05:51:41;;;;;;;2.80;1.70;;;;;;;30.50;56.80;99917.10;84205;283;22885;-63
2023/08/04 05:53:43;;;;;;;1.40;1.40;;;;;;;30.49;57.09;99910.98;84129;283;136388;-61
2023/08/04 05:55:45;;;;;;;3.80;1.90;;;;;;;30.35;56.52;99912.86;84277;283;24114;-67
2023/08/04 05:57:46;;;;;;;5.90;1.60;;;;;;;30.00;57.90;99910.13;84279;283;136147;-66
2023/08/04 05:59:48;;;;;;;4.80;1.10;;;;;;;29.58;58.96;99906.91;84325;283;24700;-68
2023/08/04 06:01:54;;;;;;;4.80;2.00;;;;;;;29.17;60.79;99904.85;84123;282;136614;-62
2023/08/04 06:03:56;;;;;;;6.00;1.70;;;;;;;28.89;61.37;99908.31;84379;282;24066;-66
2023/08/04 06:05:59;;;;;;;4.60;2.30;;;;;;;28.75;62.14;99908.83;84100;283;135735;-59
2023/08/04 06:08:01;;;;;;;4.90;2.20;;;;;;;28.59;63.31;99910.21;84104;272;24464;-62
2023/08/04 06:10:04;;;;;;;2.90;1.80;;;;;;;28.44;63.69;99906.52;84320;282;22598;-70
2023/08/04 06:12:06;;;;;;;3.00;2.10;;;;;;;28.31;64.32;99907.92;84332;282;136376;-64
2023/08/04 06:14:09;;;;;;;6.10;2.80;;;;;;;28.21;64.98;99910.56;84277;282;22801;-68
2023/08/04 06:16:11;;;;;;;5.60;2.30;;;;;;;28.17;65.62;99910.58;84169;282;136428;-64
2023/08/04 06:18:13;;;;;;;3.00;2.10;;;;;;;28.10;66.49;99909.84;84210;283;22597;-62
2023/08/04 06:20:16;;;;;;;2.40;2.00;;;;;;;28.11;66.49;99911.88;84159;282;137807;-64
2023/08/04 06:22:18;;;;;;;2.90;2.10;;;;;;;28.14;67.22;99917.73;84283;282;22745;-68
2023/08/04 06:24:27;;;;;;;3.50;1.90;;;;;;;28.11;67.10;99919.30;84090;283;136174;-64
2023/08/04 06:26:29;;;;;;;3.80;2.70;;;;;;;28.10;65.56;99924.89;84254;282;22550;-64
2023/08/04 06:28:31;;;;;;;2.90;2.70;;;;;;;28.10;65.88;99926.16;84132;282;136075;-64
2023/08/04 06:30:34;;;;;;;2.90;2.00;;;;;;;28.22;65.65;99933.13;86873;281;22482;-65
2023/08/04 06:32:37;;;;;;;3.40;3.20;;;;;;;28.35;66.43;99938.57;86221;283;135743;-67
2023/08/04 06:34:39;;;;;;;3.50;3.10;;;;;;;28.46;66.54;99940.66;84181;282;22547;-66
2023/08/04 06:36:45;;;;;;;6.90;2.90;;;;;;;28.62;66.80;99938.06;84127;281;136254;-64
2023/08/04 06:38:49;;;;;;;3.10;2.70;;;;;;;28.80;65.59;99939.33;84161;283;22911;-65
2023/08/04 06:40:50;;;;;;;5.50;2.20;;;;;;;28.87;65.15;99939.64;84231;282;136064;-64
2023/08/04 06:42:53;;;;;;;4.40;2.40;;;;;;;28.91;64.69;99942.98;84111;284;25272;-65
2023/08/04 06:44:55;;;;;;;6.00;3.00;;;;;;;28.81;65.27;99943.73;84278;282;136325;-65
2023/08/04 06:46:56;;;;;;;3.70;1.80;;;;;;;28.71;65.31;99949.69;84193;282;24054;-64
2023/08/04 06:48:58;;;;;;;4.20;2.40;;;;;;;28.74;65.33;99949.60;84158;282;135765;-65
2023/08/04 06:51:00;;;;;;;9.00;3.20;;;;;;;28.91;65.39;99949.69;84160;284;22546;-64
2023/08/04 06:53:02;;;;;;;3.80;2.70;;;;;;;29.21;64.54;99944.80;84115;282;137191;-64
2023/08/04 06:55:04;;;;;;;3.30;2.30;;;;;;;29.60;63.38;99944.19;84221;282;25177;-65
2023/08/04 06:57:06;;;;;;;6.20;2.50;;;;;;;29.98;62.50;99947.23;84200;283;136244;-63
2023/08/04 06:59:10;;;;;;;4.60;2.40;;;;;;;30.31;61.19;99950.80;84171;282;24814;-62
2023/08/04 07:01:12;;;;;;;3.00;1.90;;;;;;;30.52;60.11;99951.12;84106;282;136335;-66
2023/08/04 07:03:14;;;;;;;2.60;2.40;;;;;;;30.76;59.11;99942.24;84299;272;23083;-66
2023/08/04 07:05:16;;;;;;;9.50;2.30;;;;;;;30.93;58.70;99948.77;84190;282;136085;-67
2023/08/04 07:07:18;;;;;;;5.40;2.20;;;;;;;30.99;58.58;99952.41;84268;282;22633;-64
2023/08/04 07:09:20;;;;;;;6.70;2.00;;;;;;;31.05;58.42;99958.44;84111;282;136309;-66
2023/08/04 07:11:22;;;;;;;10.50;3.10;;;;;;;31.14;57.81;99962.00;84170;282;22545;-64
2023/08/04 07:13:24;;;;;;;4.10;2.00;;;;;;;31.21;57.88;99955.98;84131;282;136460;-66
2023/08/04 07:15:26;;;;;;;5.80;2.40;;;;;;;31.41;56.37;99960.09;84204;282;25127;-65
2023/08/04 07:17:29;;;;;;;8.60;2.20;;;;;;;31.51;56.22;99961.33;84070;282;136888;-66
2023/08/04 07:19:30;;;;;;;5.20;2.00;;;;;;;31.59;55.22;99963.02;84151;282;24055;-64
2023/08/04 07:21:32;;;;;;;4.70;2.10;;;;;;;31.64;55.03;99965.18;84050;277;136283;-63
2023/08/04 07:23:35;;;;;;;5.10;2.30;;;;;;;31.72;54.78;99967.80;84215;282;22577;-63
2023/08/04 07:25:38;;;;;;;5.30;1.90;;;;;;;31.90;53.96;99968.51;84115;282;137222;-65
2023/08/04 07:27:40;;;;;;;3.40;1.80;;;;;;;32.06;53.18;99969.33;84105;283;22571;-65
2023/08/04 07:29:41;;;;;;;10.70;2.40;;;;;;;32.00;53.88;99969.18;84139;282;136261;-66
2023/08/04 07:31:44;;;;;;;4.60;2.10;;;;;;;31.86;54.49;99966.64;84192;282;24111;-64
2023/08/04 07:33:47;;;;;;;3.90;1.80;;;;;;;31.66;54.43;99966.42;84037;283;136085;-64
2023/08/04 07:35:56;;;;;;;2.30;1.70;;;;;;;31.38;55.38;99964.71;84088;283;22550;-65
2023/08/04 07:38:01;;;;;;;2.70;2.20;;;;;;;31.17;55.58;99963.70;84071;282;135928;-68
2023/08/04 07:40:06;;;;;;;;;;;;;;;31.05;56.26;99959.93;84071;282;137393;-66
2023/08/04 07:42:08;;;;;;;3.70;2.10;;;;;;;30.97;57.21;99959.48;84385;283;22559;-67
2023/08/04 07:44:09;;;;;;;3.90;2.30;;;;;;;30.89;57.36;99953.17;84167;283;136445;-65
2023/08/04 07:46:19;;;;;;;3.70;1.90;;;;;;;30.75;57.48;99954.45;84526;282;24347;-64
2023/08/04 07:48:22;;;;;;;4.70;2.20;;;;;;;30.59;57.96;99956.02;84329;282;137086;-65
2023/08/04 07:50:27;;;;;;;3.40;1.40;;;;;;;30.52;59.02;99951.89;84283;281;22552;-67
2023/08/04 07:52:30;;;;;;;8.50;2.80;;;;;;;30.41;58.38;99956.96;84627;282;135889;-67
2023/08/04 07:54:35;;;;;;;2.90;1.60;;;;;;;30.31;58.43;99955.56;84255;279;22540;-66
2023/08/04 07:56:39;;;;;;;2.70;1.90;;;;;;;30.31;58.09;99956.17;84113;282;136253;-66
2023/08/04 07:58:41;;;;;;;7.20;2.10;;;;;;;30.28;58.30;99956.16;84156;282;22555;-66
2023/08/04 08:00:43;;;;;;;4.60;2.10;;;;;;;30.21;58.98;99957.22;84136;282;137115;-68
2023/08/04 08:02:49;;;;;;;5.50;1.50;;;;;;;30.09;58.42;99961.98;84356;282;22755;-66
2023/08/04 08:04:51;;;;;;;2.90;2.10;;;;;;;29.94;58.65;99966.39;84179;282;136057;-66
2023/08/04 08:06:54;;;;;;;5.50;1.80;;;;;;;29.84;58.58;99968.02;84200;283;25156;-66
2023/08/04 08:08:56;;;;;;;1.80;1.70;;;;;;;29.85;59.03;99966.13;84048;284;137257;-68
2023/08/04 08:10:59;;;;;;;3.10;1.90;;;;;;;29.92;59.43;99965.60;84189;282;22577;-67
2023/08/04 08:13:02;;;;;;;4.00;1.80;;;;;;;29.98;59.23;99963.02;84131;283;136507;-66
2023/08/04 08:15:07;;;;;;;2.60;2.10;;;;;;;30.00;59.26;99969.29;84156;283;25274;-67
2023/08/04 08:17:09;;;;;;;5.80;1.80;;;;;;;29.98;58.37;99969.05;84075;282;136325;-66
2023/08/04 08:19:11;;;;;;;3.70;1.60;;;;;;;29.91;58.31;99967.27;84148;282;25319;-65
2023/08/04 08:21:13;;;;;;;3.10;2.00;;;;;;;29.91;58.71;99971.91;83998;282;136843;-66
2023/08/04 08:23:15;;;;;;;1.50;1.30;;;;;;;29.93;57.79;99970.79;84089;284;25369;-66
2023/08/04 08:25:17;;;;;;;4.80;1.80;;;;;;;29.94;58.17;99972.25;84145;282;136316;-61
2023/08/04 08:27:19;;;;;;;2.30;2.00;;;;;;;29.97;58.40;99969.56;84151;282;24133;-65
2023/08/04 08:29:21;;;;;;;5.30;2.30;;;;;;;30.06;57.68;99970.83;84064;282;136153;-68
2023/08/04 08:31:23;;;;;;;6.40;1.50;;;;;;;30.17;57.69;99971.19;84180;283;22556;-65
2023/08/04 08:33:26;;;;;;;2.20;1.40;;;;;;;30.31;57.18;99974.43;84168;282;136292;-65
2023/08/04 08:35:28;;;;;;;2.80;0.70;;;;;;;30.40;54.43;99970.90;84223;282;25784;-64
2023/08/04 08:37:30;;;;;;;5.20;1.30;;;;;;;30.45;53.50;99969.44;84166;282;136062;-66
2023/08/04 08:39:31;;;;;;;3.40;2.00;;;;;;;30.49;53.28;99975.48;84165;282;22571;-65
2023/08/04 08:41:33;;;;;;;3.70;0.90;;;;;;;30.54;52.24;99973.02;83986;282;136525;-64
2023/08/04 08:43:37;;;;;;;2.50;1.10;;;;;;;30.58;51.42;99968.88;84387;283;25343;-63
2023/08/04 08:45:42;;;;;;;2.30;1.40;;;;;;;30.63;52.00;99972.52;84131;282;137104;-67
2023/08/04 08:47:44;;;;;;;3.50;1.10;;;;;;;30.62;52.39;99976.24;84315;282;22806;-63
2023/08/04 08:49:51;;;;;;;2.00;1.00;;;;;;;30.63;51.81;99978.44;84212;282;136289;-65
2023/08/04 08:51:56;;;;;;;4.00;1.00;;;;;;;30.63;51.71;99978.11;84239;282;22545;-65
2023/08/04 08:53:59;;;;;;;0.90;0.90;;;;;;;30.62;51.48;99980.52;84094;282;135900;-66
2023/08/04 08:56:02;;;;;;;3.00;0.90;;;;;;;30.66;51.72;99983.02;84168;284;24258;-66
2023/08/04 08:58:05;;;;;;;2.90;1.00;;;;;;;30.71;51.20;99982.59;84274;282;24115;-67
2023/08/04 09:00:08;;;;;;;2.30;0.90;;;;;;;30.74;50.91;99982.99;84159;282;137478;-67
2023/08/04 09:03:06;;;;;;;2.00;0.80;;;;;;;30.59;51.23;99984.21;82914;304;547317;-66
2023/08/04 09:05:10;;;;;;;3.60;1.30;;;;;;;30.57;51.65;99980.15;83676;282;135391;-68
2023/08/04 09:07:12;;;;;;;3.60;1.00;;;;;;;30.62;52.15;99977.21;83482;294;24612;-66
2023/08/04 09:09:15;;;;;;;1.70;1.10;;;;;;;30.70;51.96;99979.30;83514;294;135468;-67
2023/08/04 09:11:17;;;;;;;7.90;1.20;;;;;;;30.76;51.44;99978.36;83895;289;25361;-64
2023/08/04 09:13:18;;;;;;;4.10;1.20;;;;;;;30.81;51.48;99983.05;83747;289;135511;-67
2023/08/04 09:15:33;;;;;;;2.00;0.90;;;;;;;30.88;50.98;99979.85;83750;286;25228;-66
2023/08/04 09:17:37;;;;;;;2.10;1.30;;;;;;;30.95;51.28;99979.27;83567;288;403349;-64
2023/08/04 09:19:39;;;;;;;1.80;0.90;;;;;;;31.01;50.39;99981.73;83851;288;22564;-65
2023/08/04 09:21:43;;;;;;;3.80;1.00;;;;;;;31.02;48.22;99982.95;83888;287;135310;-66
2023/08/04 09:23:51;;;;;;;3.50;0.80;;;;;;;30.97;48.57;99980.45;83989;287;22546;-67
2023/08/04 09:25:59;;;;;;;3.90;1.00;;;;;;;30.85;47.56;99982.52;84630;287;136992;-70
2023/08/04 09:28:14;;;;;;;2.00;1.20;;;;;;;30.80;48.26;99984.06;83988;287;22552;-66
2023/08/04 09:30:17;;;;;;;1.40;0.60;;;;;;;30.80;48.45;99981.63;83911;287;24039;-71
2023/08/04 09:32:21;;;;;;;0.80;0.80;;;;;;;30.80;49.14;99980.34;83822;287;135926;-67
2023/08/04 09:34:23;;;;;;;1.30;1.00;;;;;;;30.81;49.15;99977.78;84299;286;22564;-65
2023/08/04 09:36:26;;;;;;;0.80;0.70;;;;;;;30.82;49.49;99979.16;84080;254;135640;-66
2023/08/04 09:38:28;;;;;;;1.20;0.60;;;;;;;30.86;48.33;99979.50;84196;284;22814;-64
2023/08/04 09:40:34;;;;;;;0.80;0.80;;;;;;;30.89;48.25;99977.05;84029;284;135726;-66
2023/08/04 09:42:36;;;;;;;1.50;0.60;;;;;;;30.91;47.41;99980.45;84121;284;22572;-65